createdAt,value
2014-07-05T00:00:23.162Z,67.59
2014-07-05T00:01:27.164Z,68.23
2014-07-05T00:02:31.854Z,67.91
2014-07-05T00:03:36.544Z,68.75
2014-07-05T00:04:41.530Z,67.72
2014-07-05T00:05:46.220Z,68.13
2014-07-05T00:06:51.222Z,67.43
2014-07-05T00:07:56.193Z,67.86
2014-07-05T00:09:00.882Z,68.12
2014-07-05T00:10:05.572Z,67.61
2014-07-05T00:11:10.261Z,68.19
2014-07-05T00:12:14.950Z,68.8
2014-07-05T00:13:19.938Z,68.49
2014-07-05T00:14:24.626Z,68.39
2014-07-05T00:15:29.317Z,67.82
2014-07-05T00:16:34.005Z,67.35
2014-07-05T00:17:38.696Z,67.25
2014-07-05T00:18:43.369Z,68.12
2014-07-05T00:19:48.059Z,68.15
2014-07-05T00:20:52.749Z,68.42
2014-07-05T00:21:57.438Z,68.11
2014-07-05T00:23:02.128Z,68.01
2014-07-05T00:24:06.818Z,68.26
2014-07-05T00:25:11.819Z,68.14
2014-07-05T00:26:16.806Z,68.11
2014-07-05T00:27:21.495Z,68.85
2014-07-05T00:28:26.482Z,67.65
2014-07-05T00:29:31.171Z,68.12
2014-07-05T00:30:36.157Z,69.01
2014-07-05T00:31:40.832Z,68.42
2014-07-05T00:32:45.521Z,68.39
2014-07-05T00:33:50.211Z,68.16
2014-07-05T00:34:55.182Z,67.59
2014-07-05T00:35:59.871Z,67.72
2014-07-05T00:37:04.561Z,67.96
2014-07-05T00:38:09.547Z,67.87
2014-07-05T00:39:14.221Z,67.69
2014-07-05T00:40:18.926Z,67.29
2014-07-05T00:41:23.600Z,67.79
2014-07-05T00:42:28.290Z,68.72
2014-07-05T00:43:32.980Z,68.43
2014-07-05T00:44:37.654Z,68.56
2014-07-05T00:45:42.344Z,68.69
2014-07-05T00:46:47.330Z,68.98
2014-07-05T00:47:52.019Z,67.82
2014-07-05T00:48:56.709Z,68.26
2014-07-05T00:50:01.695Z,69.22
2014-07-05T00:51:06.385Z,68.53
2014-07-05T00:52:11.074Z,68.28
2014-07-05T00:53:16.061Z,68.19
2014-07-05T00:54:20.736Z,68.24
2014-07-05T00:55:26.018Z,67.72
2014-07-05T00:56:30.708Z,67.7
2014-07-05T00:57:35.398Z,68.27
2014-07-05T00:58:40.071Z,68.52
2014-07-05T00:59:44.761Z,68.13
2014-07-05T01:00:49.450Z,67.74
2014-07-05T01:01:54.140Z,67.12
2014-07-05T01:02:58.814Z,67.29
2014-07-05T01:04:03.504Z,66.59
2014-07-05T01:05:08.193Z,66.96
2014-07-05T01:06:12.883Z,66.87
2014-07-05T01:07:17.572Z,66.82
2014-07-05T01:08:22.246Z,66.36
2014-07-05T01:09:26.936Z,66.88
2014-07-05T01:10:31.626Z,66.93
2014-07-05T01:11:36.299Z,66.84
2014-07-05T01:12:40.989Z,67.3
2014-07-05T01:13:45.679Z,68.23
2014-07-05T01:14:50.352Z,67.73
2014-07-05T01:15:55.042Z,67.85
2014-07-05T01:17:00.029Z,68.15
2014-07-05T01:18:04.718Z,66.79
2014-07-05T01:19:09.689Z,66.67
2014-07-05T01:20:14.675Z,67.08
2014-07-05T01:21:19.365Z,67.56
2014-07-05T01:22:24.054Z,67.26
2014-07-05T01:23:28.744Z,67.91
2014-07-05T01:24:33.419Z,68.26
2014-07-05T01:25:38.107Z,67.25
2014-07-05T01:26:42.798Z,66.5
2014-07-05T01:27:47.487Z,67.08
2014-07-05T01:28:52.160Z,67.02
2014-07-05T01:29:57.147Z,67.84
2014-07-05T01:31:01.836Z,67.3
2014-07-05T01:32:06.823Z,67.59
2014-07-05T01:33:11.794Z,66.51
2014-07-05T01:34:16.483Z,66.91
2014-07-05T01:35:21.173Z,66.39
2014-07-05T01:36:25.847Z,66.2
2014-07-05T01:37:30.833Z,66.3
2014-07-05T01:38:35.523Z,66.45
2014-07-05T01:39:40.510Z,66.49
2014-07-05T01:40:45.183Z,66.47
2014-07-05T01:41:49.873Z,66.87
2014-07-05T01:42:54.562Z,66.46
2014-07-05T01:43:59.251Z,67.23
2014-07-05T01:45:03.926Z,66.33
2014-07-05T01:46:08.615Z,66.54
2014-07-05T01:47:13.305Z,68.19
2014-07-05T01:48:18.292Z,67.73
2014-07-05T01:49:22.966Z,67.34
2014-07-05T01:50:27.655Z,67.86
2014-07-05T01:51:32.346Z,68.13
2014-07-05T01:52:37.034Z,67.24
2014-07-05T01:53:41.708Z,67.29
2014-07-05T01:54:46.398Z,67.58
2014-07-05T01:55:51.384Z,67.97
2014-07-05T01:56:56.370Z,67.43
2014-07-05T01:58:01.060Z,67.39
2014-07-05T01:59:05.735Z,67.87
2014-07-05T02:00:10.424Z,67.72
2014-07-05T02:01:15.114Z,68.26
2014-07-05T02:02:20.100Z,68.62
2014-07-05T02:03:24.789Z,67.85
2014-07-05T02:04:29.463Z,67.01
2014-07-05T02:05:34.153Z,67.77
2014-07-05T02:06:38.842Z,67.57
2014-07-05T02:07:43.532Z,67.32
2014-07-05T02:08:48.206Z,67.2
2014-07-05T02:09:53.192Z,67.83
2014-07-05T02:10:58.178Z,67.86
2014-07-05T02:12:02.853Z,67.79
2014-07-05T02:13:07.542Z,67.17
2014-07-05T02:14:12.232Z,67.79
2014-07-05T02:15:16.922Z,67.19
2014-07-05T02:16:21.595Z,67.56
2014-07-05T02:17:26.285Z,68.54
2014-07-05T02:18:31.271Z,68.28
2014-07-05T02:19:35.961Z,67.95
2014-07-05T02:20:40.651Z,68.38
2014-07-05T02:21:45.324Z,68.24
2014-07-05T02:22:50.311Z,66.7
2014-07-05T02:23:55.000Z,66.55
2014-07-05T02:24:59.690Z,66.02
2014-07-05T02:26:04.379Z,66.32
2014-07-05T02:27:09.054Z,67.39
2014-07-05T02:28:13.743Z,67.07
2014-07-05T02:29:18.433Z,67.34
2014-07-05T02:30:23.107Z,66.54
2014-07-05T02:31:28.093Z,66.84
2014-07-05T02:32:32.783Z,67.14
2014-07-05T02:33:37.769Z,65.85
2014-07-05T02:34:42.756Z,66.6
2014-07-05T02:35:47.492Z,67.05
2014-07-05T02:36:52.478Z,66.28
2014-07-05T02:37:57.152Z,66.03
2014-07-05T02:39:01.842Z,67.05
2014-07-05T02:40:06.828Z,67.27
2014-07-05T02:41:11.518Z,66.2
2014-07-05T02:42:16.504Z,66.16
2014-07-05T02:43:21.194Z,65.38
2014-07-05T02:44:25.884Z,65.93
2014-07-05T02:45:30.558Z,65.78
2014-07-05T02:46:35.247Z,66.31
2014-07-05T02:47:39.937Z,66.93
2014-07-05T02:48:44.626Z,67.58
2014-07-05T02:49:49.316Z,66.34
2014-07-05T02:50:53.990Z,66.45
2014-07-05T02:51:58.679Z,65.79
2014-07-05T02:53:03.369Z,66.96
2014-07-05T02:54:08.058Z,65.91
2014-07-05T02:55:12.732Z,65.48
2014-07-05T02:56:17.422Z,65.97
2014-07-05T02:57:22.408Z,66.69
2014-07-05T02:58:27.098Z,66.95
2014-07-05T02:59:32.084Z,67.18
2014-07-05T03:00:36.773Z,66.32
2014-07-05T03:01:41.448Z,67.47
2014-07-05T03:02:46.435Z,67.25
2014-07-05T03:03:51.124Z,67.39
2014-07-05T03:04:56.111Z,68.1
2014-07-05T03:06:00.784Z,67.7
2014-07-05T03:07:05.771Z,67.01
2014-07-05T03:08:10.460Z,67.41
2014-07-05T03:09:15.431Z,67.28
2014-07-05T03:10:20.122Z,66.39
2014-07-05T03:11:24.810Z,67
2014-07-05T03:12:29.813Z,67.53
2014-07-05T03:13:34.486Z,66.61
2014-07-05T03:14:39.176Z,68.11
2014-07-05T03:15:43.866Z,67.83
2014-07-05T03:16:48.555Z,67.81
2014-07-05T03:17:53.245Z,67.72
2014-07-05T03:18:58.231Z,67.99
2014-07-05T03:20:03.218Z,67.18
2014-07-05T03:21:07.908Z,66.64
2014-07-05T03:22:12.581Z,66.71
2014-07-05T03:23:17.568Z,67.58
2014-07-05T03:24:22.569Z,67.22
2014-07-05T03:25:27.259Z,67.31
2014-07-05T03:26:31.948Z,67.59
2014-07-05T03:27:36.654Z,67.5
2014-07-05T03:28:41.344Z,67.11
2014-07-05T03:29:46.329Z,67.73
2014-07-05T03:30:51.020Z,67.98
2014-07-05T03:31:56.005Z,68.26
2014-07-05T03:33:00.696Z,67.88
2014-07-05T03:34:05.370Z,68.34
2014-07-05T03:35:10.059Z,67
2014-07-05T03:36:14.749Z,66.88
2014-07-05T03:37:19.439Z,67.13
2014-07-05T03:38:24.128Z,67.26
2014-07-05T03:39:28.803Z,67.86
2014-07-05T03:40:33.491Z,67.21
2014-07-05T03:41:38.775Z,67.84
2014-07-05T03:42:43.464Z,66.68
2014-07-05T03:43:48.153Z,66.49
2014-07-05T03:44:52.828Z,66.75
2014-07-05T03:45:57.517Z,66.74
2014-07-05T03:47:02.207Z,66.42
2014-07-05T03:48:07.194Z,66.79
2014-07-05T03:49:11.883Z,67.1
2014-07-05T03:50:16.573Z,67.68
2014-07-05T03:51:21.309Z,67.15
2014-07-05T03:52:25.998Z,66.14
2014-07-05T03:53:30.985Z,66.25
2014-07-05T03:54:35.674Z,66.51
2014-07-05T03:55:40.364Z,66.44
2014-07-05T03:56:45.351Z,66.56
2014-07-05T03:57:50.337Z,66.18
2014-07-05T03:58:55.011Z,66.44
2014-07-05T03:59:59.701Z,66.41
2014-07-05T04:01:04.390Z,67.71
2014-07-05T04:02:09.080Z,66.74
2014-07-05T04:03:13.754Z,66.17
2014-07-05T04:04:18.443Z,66.16
2014-07-05T04:05:23.117Z,66.67
2014-07-05T04:06:27.807Z,66.57
2014-07-05T04:07:32.496Z,66.13
2014-07-05T04:08:37.186Z,66.63
2014-07-05T04:09:41.876Z,66.55
2014-07-05T04:10:46.846Z,66.4
2014-07-05T04:11:51.536Z,66.3
2014-07-05T04:12:56.226Z,67
2014-07-05T04:14:00.899Z,66.13
2014-07-05T04:15:05.589Z,66
2014-07-05T04:16:10.263Z,65.81
2014-07-05T04:17:14.952Z,65.74
2014-07-05T04:18:19.642Z,66.49
2014-07-05T04:19:24.316Z,66.4
2014-07-05T04:20:29.599Z,66.39
2014-07-05T04:21:34.289Z,66.61
2014-07-05T04:22:38.978Z,66.3
2014-07-05T04:23:43.965Z,65.61
2014-07-05T04:24:48.640Z,66.66
2014-07-05T04:25:53.625Z,67.23
2014-07-05T04:26:58.315Z,66.24
2014-07-05T04:28:02.989Z,67.45
2014-07-05T04:29:07.678Z,67.85
2014-07-05T04:30:12.665Z,67.07
2014-07-05T04:31:17.354Z,66.2
2014-07-05T04:32:22.044Z,65.84
2014-07-05T04:33:27.015Z,66.16
2014-07-05T04:34:31.704Z,67.01
2014-07-05T04:35:36.394Z,67.01
2014-07-05T04:36:41.083Z,67.39
2014-07-05T04:37:45.773Z,67.34
2014-07-05T04:38:50.447Z,67.1
2014-07-05T04:39:55.434Z,66.78
2014-07-05T04:41:00.123Z,66.89
2014-07-05T04:42:04.798Z,66.21
2014-07-05T04:43:09.487Z,66.39
2014-07-05T04:44:14.177Z,65.84
2014-07-05T04:45:18.866Z,66.03
2014-07-05T04:46:23.551Z,66.49
2014-07-05T04:47:28.280Z,66.19
2014-07-05T04:48:33.010Z,66.1
2014-07-05T04:49:37.738Z,66.55
2014-07-05T04:50:42.750Z,66.74
2014-07-05T04:51:47.494Z,67.28
2014-07-05T04:52:52.182Z,66.67
2014-07-05T04:53:56.886Z,66.39
2014-07-05T04:55:01.590Z,65.58
2014-07-05T04:56:06.592Z,65.1
2014-07-05T04:57:11.286Z,65.92
2014-07-05T04:58:15.981Z,66.42
2014-07-05T04:59:20.660Z,66.47
2014-07-05T05:00:25.356Z,66.2
2014-07-05T05:01:30.049Z,66.23
2014-07-05T05:02:34.803Z,65.3
2014-07-05T05:03:39.790Z,66.45
2014-07-05T05:04:44.466Z,64.97
2014-07-05T05:05:49.158Z,65.65
2014-07-05T05:06:54.145Z,65.37
2014-07-05T05:07:58.835Z,65.63
2014-07-05T05:09:03.823Z,65.63
2014-07-05T05:10:08.809Z,65.7
2014-07-05T05:11:13.485Z,65.19
2014-07-05T05:12:18.471Z,64.56
2014-07-05T05:13:23.161Z,64.21
2014-07-05T05:14:27.851Z,64.95
2014-07-05T05:15:32.821Z,64.78
2014-07-05T05:16:37.527Z,64.52
2014-07-05T05:17:42.513Z,64.46
2014-07-05T05:18:47.202Z,64.04
2014-07-05T05:19:51.876Z,64.32
2014-07-05T05:20:56.566Z,62.53
2014-07-05T05:22:01.255Z,61.99
2014-07-05T05:23:06.242Z,62.74
2014-07-05T05:24:10.917Z,62.76
2014-07-05T05:25:15.605Z,61.66
2014-07-05T05:26:20.592Z,61.21
2014-07-05T05:27:25.282Z,61.09
2014-07-05T05:28:29.955Z,60.71
2014-07-05T05:29:34.645Z,60.19
2014-07-05T05:30:39.334Z,59.24
2014-07-05T05:31:44.023Z,59.24
2014-07-05T05:32:48.714Z,60.43
2014-07-05T05:33:53.388Z,59.17
2014-07-05T05:34:58.077Z,59.28
2014-07-05T05:36:03.065Z,58.65
2014-07-05T05:37:07.754Z,58.19
2014-07-05T05:38:12.443Z,57.87
2014-07-05T05:39:17.133Z,58.17
2014-07-05T05:40:21.806Z,57.85
2014-07-05T05:41:26.496Z,57.72
2014-07-05T05:42:31.202Z,57.15
2014-07-05T05:43:35.891Z,56.95
2014-07-05T05:44:40.581Z,57.37
2014-07-05T05:45:45.270Z,57.45
2014-07-05T05:46:49.960Z,57.41
2014-07-05T05:47:54.649Z,57.35
2014-07-05T05:48:59.339Z,56.31
2014-07-05T05:50:04.325Z,56.91
2014-07-05T05:51:09.014Z,55.95
2014-07-05T05:52:13.704Z,55.98
2014-07-05T05:53:18.394Z,55.68
2014-07-05T05:54:23.084Z,55.19
2014-07-05T05:55:28.069Z,55.01
2014-07-05T05:56:32.760Z,53.67
2014-07-05T05:57:37.448Z,54.04
2014-07-05T05:58:42.139Z,52.95
2014-07-05T05:59:46.812Z,53.33
2014-07-05T06:00:51.502Z,52.74
2014-07-05T06:01:56.489Z,51.94
2014-07-05T06:03:01.178Z,53.22
2014-07-05T06:04:05.868Z,52.63
2014-07-05T06:05:10.557Z,52.97
2014-07-05T06:06:15.248Z,52.67
2014-07-05T06:07:19.937Z,52.29
2014-07-05T06:08:24.626Z,51.46
2014-07-05T06:09:29.315Z,53.06
2014-07-05T06:10:34.006Z,51.34
2014-07-05T06:11:38.694Z,47.81
2014-07-05T06:12:43.384Z,45.28
2014-07-05T06:13:48.074Z,40.34
2014-07-05T06:14:52.763Z,37.83
2014-07-05T06:15:57.453Z,37.14
2014-07-05T06:17:02.143Z,36.56
2014-07-05T06:18:06.832Z,34.5
2014-07-05T06:19:11.522Z,33.2
2014-07-05T06:20:16.211Z,32.84
2014-07-05T06:21:20.902Z,33.83
2014-07-05T06:22:25.887Z,32.33
2014-07-05T06:23:30.577Z,32.18
2014-07-05T06:24:35.266Z,30.77
2014-07-05T06:25:39.956Z,30.76
2014-07-05T06:26:44.645Z,30.54
2014-07-05T06:27:49.351Z,29.95
2014-07-05T06:28:54.041Z,29.23
2014-07-05T06:29:58.730Z,29.48
2014-07-05T06:31:03.732Z,28.7
2014-07-05T06:32:08.718Z,28.54
2014-07-05T06:33:13.408Z,28.76
2014-07-05T06:34:18.113Z,28.34
2014-07-05T06:35:22.803Z,28.49
2014-07-05T06:36:27.492Z,28.11
2014-07-05T06:37:32.494Z,28.67
2014-07-05T06:38:37.185Z,28.95
2014-07-05T06:39:41.889Z,29.29
2014-07-05T06:40:46.578Z,32.35
2014-07-05T06:41:51.580Z,35.82
2014-07-05T06:42:56.270Z,38.9
2014-07-05T06:44:00.960Z,40.39
2014-07-05T06:45:05.649Z,40.56
2014-07-05T06:46:10.354Z,42.08
2014-07-05T06:47:15.060Z,42.62
2014-07-05T06:48:19.749Z,43.65
2014-07-05T06:49:24.439Z,44.28
2014-07-05T06:50:29.128Z,45.06
2014-07-05T06:51:33.849Z,45.03
2014-07-05T06:52:38.539Z,46.65
2014-07-05T06:53:43.228Z,47.12
2014-07-05T06:54:47.918Z,46.78
2014-07-05T06:55:52.607Z,46.58
2014-07-05T06:56:57.297Z,47.57
2014-07-05T06:58:01.986Z,48.34
2014-07-05T06:59:06.676Z,48.91
2014-07-05T07:00:11.366Z,48.71
2014-07-05T07:01:16.055Z,48.85
2014-07-05T07:02:20.745Z,49.15
2014-07-05T07:03:25.732Z,49.11
2014-07-05T07:04:30.421Z,49.21
2014-07-05T07:05:35.407Z,50.17
2014-07-05T07:06:40.097Z,50.24
2014-07-05T07:07:44.786Z,50.95
2014-07-05T07:08:49.476Z,51.9
2014-07-05T07:09:54.165Z,51.05
2014-07-05T07:10:58.856Z,50.7
2014-07-05T07:12:03.841Z,51.13
2014-07-05T07:13:08.532Z,51.13
2014-07-05T07:14:13.518Z,51.6
2014-07-05T07:15:18.208Z,51.89
2014-07-05T07:16:22.897Z,51.59
2014-07-05T07:17:27.884Z,52.45
2014-07-05T07:18:32.572Z,51.64
2014-07-05T07:19:37.262Z,52.03
2014-07-05T07:20:41.935Z,51.19
2014-07-05T07:21:46.923Z,51.99
2014-07-05T07:22:51.612Z,51.16
2014-07-05T07:23:56.316Z,50.93
2014-07-05T07:25:01.007Z,50.74
2014-07-05T07:26:05.993Z,51.84
2014-07-05T07:27:10.683Z,51.22
2014-07-05T07:28:15.670Z,51.41
2014-07-05T07:29:20.657Z,52.41
2014-07-05T07:30:24.659Z,52.83
2014-07-05T07:31:29.347Z,52.73
2014-07-05T07:32:34.334Z,53.17
2014-07-05T07:33:39.023Z,53.41
2014-07-05T07:34:43.712Z,53.2
2014-07-05T07:35:48.403Z,54.07
2014-07-05T07:36:53.092Z,54.15
2014-07-05T07:37:58.063Z,53.97
2014-07-05T07:39:02.752Z,54.81
2014-07-05T07:40:07.739Z,54.65
2014-07-05T07:41:13.021Z,55.53
2014-07-05T07:42:18.306Z,54.95
2014-07-05T07:43:23.292Z,55.29
2014-07-05T07:44:27.981Z,55.14
2014-07-05T07:45:32.968Z,55.11
2014-07-05T07:46:37.657Z,56.31
2014-07-05T07:47:42.441Z,55.74
2014-07-05T07:48:47.130Z,55.41
2014-07-05T07:49:51.820Z,55.92
2014-07-05T07:50:56.806Z,56.57
2014-07-05T07:52:01.495Z,55.93
2014-07-05T07:53:06.185Z,55.25
2014-07-05T07:54:10.874Z,55.76
2014-07-05T07:55:15.548Z,55.69
2014-07-05T07:56:20.237Z,55.25
2014-07-05T07:57:24.928Z,54.38
2014-07-05T07:58:29.619Z,53.88
2014-07-05T07:59:34.293Z,53.92
2014-07-05T08:00:38.981Z,54.69
2014-07-05T08:01:43.969Z,54.09
2014-07-05T08:02:48.658Z,53.84
2014-07-05T08:03:53.348Z,53.04
2014-07-05T08:04:58.334Z,52.5
2014-07-05T08:06:03.320Z,53.19
2014-07-05T08:07:08.010Z,52.64
2014-07-05T08:08:12.684Z,52.83
2014-07-05T08:09:17.967Z,53.34
2014-07-05T08:10:22.657Z,54.11
2014-07-05T08:11:27.644Z,55.33
2014-07-05T08:12:32.332Z,54.26
2014-07-05T08:13:36.334Z,55.24
2014-07-05T08:14:41.321Z,54.64
2014-07-05T08:15:46.010Z,55.2
2014-07-05T08:16:50.700Z,54.93
2014-07-05T08:17:55.374Z,56.01
2014-07-05T08:19:00.079Z,55.11
2014-07-05T08:20:04.768Z,55.94
2014-07-05T08:21:09.755Z,56.18
2014-07-05T08:22:14.428Z,55.75
2014-07-05T08:23:19.118Z,55.94
2014-07-05T08:24:24.104Z,56.5
2014-07-05T08:25:29.092Z,56.17
2014-07-05T08:26:33.781Z,57.12
2014-07-05T08:27:38.768Z,57.23
2014-07-05T08:28:43.441Z,56.49
2014-07-05T08:29:48.724Z,56.41
2014-07-05T08:30:53.413Z,56.64
2014-07-05T08:31:58.103Z,56.6
2014-07-05T08:33:02.792Z,56.76
2014-07-05T08:34:07.794Z,56.92
2014-07-05T08:35:12.487Z,57.18
2014-07-05T08:36:17.176Z,57.21
2014-07-05T08:37:21.849Z,56.99
2014-07-05T08:38:27.132Z,57.12
2014-07-05T08:39:31.823Z,56.98
2014-07-05T08:40:36.511Z,57.37
2014-07-05T08:41:41.202Z,57.27
2014-07-05T08:42:45.875Z,57.91
2014-07-05T08:43:50.565Z,57.85
2014-07-05T08:44:55.254Z,58.79
2014-07-05T08:45:59.944Z,58.79
2014-07-05T08:47:04.915Z,58.92
2014-07-05T08:48:10.229Z,58.92
2014-07-05T08:49:14.919Z,59.16
2014-07-05T08:50:19.607Z,58.43
2014-07-05T08:51:24.875Z,58.56
2014-07-05T08:52:29.862Z,57.73
2014-07-05T08:53:34.849Z,58.13
2014-07-05T08:54:39.835Z,58.09
2014-07-05T08:55:44.837Z,58.13
2014-07-05T08:56:49.510Z,58.63
2014-07-05T08:57:54.201Z,58.2
2014-07-05T08:58:58.889Z,57.83
2014-07-05T09:00:03.892Z,57.47
2014-07-05T09:01:08.582Z,56.49
2014-07-05T09:02:13.271Z,57.98
2014-07-05T09:03:17.961Z,57.34
2014-07-05T09:04:22.931Z,57.42
2014-07-05T09:05:28.215Z,57.75
2014-07-05T09:06:33.201Z,56.22
2014-07-05T09:07:37.890Z,55.77
2014-07-05T09:08:42.580Z,56.19
2014-07-05T09:09:47.269Z,55.71
2014-07-05T09:10:51.959Z,56.49
2014-07-05T09:11:56.931Z,56.32
2014-07-05T09:13:01.619Z,56.62
2014-07-05T09:14:06.309Z,56.33
2014-07-05T09:15:10.311Z,57.29
2014-07-05T09:16:15.596Z,57.04
2014-07-05T09:17:20.285Z,56.98
2014-07-05T09:18:24.974Z,56.65
2014-07-05T09:19:29.664Z,57.29
2014-07-05T09:20:34.651Z,57.35
2014-07-05T09:21:39.324Z,57.92
2014-07-05T09:22:44.311Z,57.8
2014-07-05T09:23:49.297Z,57.41
2014-07-05T09:24:54.284Z,58.07
2014-07-05T09:25:59.270Z,58.4
2014-07-05T09:27:03.960Z,58.43
2014-07-05T09:28:08.946Z,58.96
2014-07-05T09:29:13.932Z,58.65
2014-07-05T09:30:18.622Z,58.57
2014-07-05T09:31:23.295Z,58.55
2014-07-05T09:32:28.281Z,58.6
2014-07-05T09:33:32.972Z,58.84
2014-07-05T09:34:37.660Z,58.5
2014-07-05T09:35:42.648Z,58.7
2014-07-05T09:36:47.321Z,59.18
2014-07-05T09:37:52.011Z,58.52
2014-07-05T09:38:56.997Z,58.12
2014-07-05T09:40:01.986Z,57.82
2014-07-05T09:41:06.675Z,57.68
2014-07-05T09:42:11.365Z,57.04
2014-07-05T09:43:16.053Z,57.39
2014-07-05T09:44:21.040Z,57.86
2014-07-05T09:45:25.730Z,58.27
2014-07-05T09:46:30.419Z,56.87
2014-07-05T09:47:35.405Z,55.48
2014-07-05T09:48:40.094Z,54.88
2014-07-05T09:49:45.081Z,54.86
2014-07-05T09:50:49.756Z,54.62
2014-07-05T09:51:54.444Z,54.42
2014-07-05T09:52:59.134Z,54.22
2014-07-05T09:54:03.823Z,54.26
2014-07-05T09:55:08.513Z,53.65
2014-07-05T09:56:13.202Z,53.68
2014-07-05T09:57:17.892Z,54.04
2014-07-05T09:58:22.581Z,53.9
2014-07-05T09:59:27.271Z,55.03
2014-07-05T10:00:32.259Z,54.72
2014-07-05T10:01:37.245Z,53.6
2014-07-05T10:02:42.232Z,54.27
2014-07-05T10:03:47.218Z,54.45
2014-07-05T10:04:52.205Z,54.08
2014-07-05T10:05:56.894Z,53.74
2014-07-05T10:07:01.880Z,53.65
2014-07-05T10:08:06.554Z,53.94
2014-07-05T10:09:11.244Z,53.33
2014-07-05T10:10:15.949Z,52.06
2014-07-05T10:11:20.638Z,52.17
2014-07-05T10:12:24.640Z,52.09
2014-07-05T10:13:29.642Z,52.34
2014-07-05T10:14:34.612Z,51.77
2014-07-05T10:15:39.303Z,51.98
2014-07-05T10:16:44.289Z,51.84
2014-07-05T10:17:48.979Z,52.26
2014-07-05T10:18:53.668Z,52.34
2014-07-05T10:19:58.358Z,51.6
2014-07-05T10:21:03.344Z,52.79
2014-07-05T10:22:08.330Z,51.26
2014-07-05T10:23:13.022Z,50.68
2014-07-05T10:24:18.007Z,51.74
2014-07-05T10:25:22.994Z,50.48
2014-07-05T10:26:27.683Z,49.83
2014-07-05T10:27:32.373Z,50.76
2014-07-05T10:28:37.062Z,50.62
2014-07-05T10:29:41.752Z,50.64
2014-07-05T10:30:46.441Z,50.98
2014-07-05T10:31:51.131Z,49.71
2014-07-05T10:32:56.117Z,49.56
2014-07-05T10:34:01.103Z,49.25
2014-07-05T10:35:06.090Z,50.13
2014-07-05T10:36:10.779Z,50.07
2014-07-05T10:37:14.781Z,50.06
2014-07-05T10:38:19.471Z,49.95
2014-07-05T10:39:24.160Z,49.04
2014-07-05T10:40:29.147Z,48.9
2014-07-05T10:41:33.838Z,49.72
2014-07-05T10:42:38.528Z,48.82
2014-07-05T10:43:43.216Z,48.52
2014-07-05T10:44:47.907Z,49
2014-07-05T10:45:52.595Z,48.86
2014-07-05T10:46:57.567Z,48.85
2014-07-05T10:48:02.552Z,48.5
2014-07-05T10:49:07.242Z,47.25
2014-07-05T10:50:11.932Z,47.12
2014-07-05T10:51:16.621Z,47.45
2014-07-05T10:52:21.311Z,48.02
2014-07-05T10:53:26.298Z,49.15
2014-07-05T10:54:31.284Z,47.57
2014-07-05T10:55:36.269Z,47.63
2014-07-05T10:56:41.257Z,48.38
2014-07-05T10:57:46.242Z,48.4
2014-07-05T10:58:50.932Z,48.77
2014-07-05T10:59:55.623Z,48.47
2014-07-05T11:01:00.313Z,49
2014-07-05T11:02:04.986Z,48.56
2014-07-05T11:03:08.988Z,48.87
2014-07-05T11:04:13.678Z,49.19
2014-07-05T11:05:18.367Z,49.06
2014-07-05T11:06:23.369Z,49.07
2014-07-05T11:07:28.059Z,48.81
2014-07-05T11:08:33.044Z,49.73
2014-07-05T11:09:38.329Z,49.31
2014-07-05T11:10:43.018Z,49.64
2014-07-05T11:11:47.317Z,49.58
2014-07-05T11:12:52.302Z,49.63
2014-07-05T11:13:56.993Z,49.87
2014-07-05T11:15:01.682Z,50.44
2014-07-05T11:16:06.372Z,49.82
2014-07-05T11:17:11.060Z,50.5
2014-07-05T11:18:16.049Z,49.82
2014-07-05T11:19:20.738Z,50.67
2014-07-05T11:20:25.725Z,50.09
2014-07-05T11:21:30.414Z,49.26
2014-07-05T11:22:35.400Z,49.4
2014-07-05T11:23:40.090Z,49.75
2014-07-05T11:24:44.779Z,50.31
2014-07-05T11:25:49.766Z,49.92
2014-07-05T11:26:54.455Z,50.12
2014-07-05T11:27:59.145Z,50.77
2014-07-05T11:29:03.849Z,49.61
2014-07-05T11:30:08.523Z,49.99
2014-07-05T11:31:13.212Z,50.31
2014-07-05T11:32:17.903Z,50.91
2014-07-05T11:33:22.890Z,49.96
2014-07-05T11:34:27.580Z,49.82
2014-07-05T11:35:32.269Z,49.39
2014-07-05T11:36:36.959Z,49.58
2014-07-05T11:37:41.648Z,50.4
2014-07-05T11:38:46.338Z,49.96
2014-07-05T11:39:51.026Z,49.23
2014-07-05T11:40:55.700Z,48.76
2014-07-05T11:42:00.702Z,49.33
2014-07-05T11:43:05.392Z,50.19
2014-07-05T11:44:10.065Z,49.49
2014-07-05T11:45:15.052Z,49.75
2014-07-05T11:46:20.038Z,49.63
2014-07-05T11:47:24.730Z,51.13
2014-07-05T11:48:29.419Z,51
2014-07-05T11:49:34.109Z,51.64
2014-07-05T11:50:38.798Z,52.09
2014-07-05T11:51:43.488Z,51.1
2014-07-05T11:52:48.162Z,51.35
2014-07-05T11:53:52.851Z,51.7
2014-07-05T11:54:57.541Z,51.29
2014-07-05T11:56:02.230Z,51.78
2014-07-05T11:57:07.216Z,51.51
2014-07-05T11:58:11.906Z,51.79
2014-07-05T11:59:16.595Z,51.5
2014-07-05T12:00:21.879Z,52.82
2014-07-05T12:01:26.567Z,53.73
2014-07-05T12:02:31.258Z,55.17
2014-07-05T12:03:36.244Z,55.67
2014-07-05T12:04:40.934Z,56.86
2014-07-05T12:05:45.623Z,57.72
2014-07-05T12:06:50.314Z,56.22
2014-07-05T12:07:55.003Z,55.87
2014-07-05T12:08:59.989Z,58.51
2014-07-05T12:10:04.977Z,58.67
2014-07-05T12:11:09.651Z,57.24
2014-07-05T12:12:14.339Z,56.77
2014-07-05T12:13:19.326Z,57.29
2014-07-05T12:14:24.000Z,56.81
2014-07-05T12:15:28.689Z,58.19
2014-07-05T12:16:33.676Z,57.27
2014-07-05T12:17:38.365Z,55.53
2014-07-05T12:18:43.054Z,55.53
2014-07-05T12:19:47.744Z,56.35
2014-07-05T12:20:52.715Z,54.33
2014-07-05T12:21:57.404Z,55.47
2014-07-05T12:23:01.703Z,54.85
2014-07-05T12:24:06.392Z,54.71
2014-07-05T12:25:11.380Z,55.54
2014-07-05T12:26:16.069Z,54.73
2014-07-05T12:27:20.759Z,55.03
2014-07-05T12:28:25.433Z,55.13
2014-07-05T12:29:30.123Z,55.14
2014-07-05T12:30:34.812Z,54.28
2014-07-05T12:31:39.501Z,55.53
2014-07-05T12:32:44.206Z,55.67
2014-07-05T12:33:48.880Z,55.36
2014-07-05T12:34:53.570Z,54.75
2014-07-05T12:35:58.259Z,55.02
2014-07-05T12:37:02.949Z,55.42
2014-07-05T12:38:07.638Z,56.76
2014-07-05T12:39:12.312Z,56.21
2014-07-05T12:40:17.297Z,55.53
2014-07-05T12:41:22.287Z,57.74
2014-07-05T12:42:27.272Z,57.34
2014-07-05T12:43:31.963Z,55.75
2014-07-05T12:44:36.652Z,55.51
2014-07-05T12:45:41.342Z,56.62
2014-07-05T12:46:46.015Z,54.82
2014-07-05T12:47:50.704Z,54.49
2014-07-05T12:48:55.394Z,54.27
2014-07-05T12:50:00.083Z,53.22
2014-07-05T12:51:04.774Z,53.91
2014-07-05T12:52:09.463Z,53.06
2014-07-05T12:53:14.152Z,53
2014-07-05T12:54:18.154Z,52.92
2014-07-05T12:55:22.843Z,53.23
2014-07-05T12:56:27.816Z,53.37
2014-07-05T12:57:32.802Z,54.54
2014-07-05T12:58:37.492Z,55.04
2014-07-05T12:59:42.181Z,54.42
2014-07-05T13:00:47.152Z,55.15
2014-07-05T13:01:51.840Z,54.64
2014-07-05T13:02:56.530Z,55.32
2014-07-05T13:04:01.813Z,56.66
2014-07-05T13:05:06.503Z,57.08
2014-07-05T13:06:11.489Z,56.11
2014-07-05T13:07:16.179Z,57.06
2014-07-05T13:08:20.852Z,56.61
2014-07-05T13:09:25.838Z,55.69
2014-07-05T13:10:30.529Z,55.81
2014-07-05T13:11:35.220Z,55.89
2014-07-05T13:12:39.909Z,55.66
2014-07-05T13:13:44.896Z,56.8
2014-07-05T13:14:49.570Z,56.24
2014-07-05T13:15:54.852Z,56.6
2014-07-05T13:16:59.838Z,56.66
2014-07-05T13:18:04.825Z,56.61
2014-07-05T13:19:09.514Z,55.92
2014-07-05T13:20:14.204Z,57.16
2014-07-05T13:21:19.190Z,56.69
2014-07-05T13:22:23.879Z,57.57
2014-07-05T13:23:28.555Z,58.29
2014-07-05T13:24:33.245Z,58.31
2014-07-05T13:25:37.933Z,59.05
2014-07-05T13:26:42.905Z,60.13
2014-07-05T13:27:47.595Z,57.52
2014-07-05T13:28:52.580Z,58.43
2014-07-05T13:29:57.270Z,58.53
2014-07-05T13:31:02.257Z,59.42
2014-07-05T13:32:06.945Z,59.49
2014-07-05T13:33:11.635Z,58.04
2014-07-05T13:34:16.621Z,58.02
2014-07-05T13:35:21.592Z,57.37
2014-07-05T13:36:26.578Z,58.16
2014-07-05T13:37:31.268Z,58
2014-07-05T13:38:35.957Z,57.64
2014-07-05T13:39:40.631Z,57.48
2014-07-05T13:40:45.321Z,57.8
2014-07-05T13:41:50.011Z,58.26
2014-07-05T13:42:54.702Z,57.19
2014-07-05T13:43:59.688Z,57.35
2014-07-05T13:45:04.362Z,57.74
2014-07-05T13:46:09.051Z,58.23
2014-07-05T13:47:13.741Z,57.95
2014-07-05T13:48:18.429Z,58.31
2014-07-05T13:49:23.416Z,58.95
2014-07-05T13:50:28.090Z,57.51
2014-07-05T13:51:32.779Z,58.49
2014-07-05T13:52:37.469Z,59.08
2014-07-05T13:53:42.191Z,59.9
2014-07-05T13:54:47.219Z,59.77
2014-07-05T13:55:51.933Z,59.46
2014-07-05T13:56:56.664Z,59.13